createdAt,value
2019-05-12T00:00:11.706Z,33.87
2019-05-12T00:02:42.645Z,35.40
2019-05-12T00:05:13.675Z,34.60
2019-05-12T00:07:44.527Z,34.57
2019-05-12T00:10:17.602Z,35.13
2019-05-12T00:12:48.626Z,34.43
2019-05-12T00:15:19.930Z,34.90
2019-05-12T00:17:51.381Z,34.17
2019-05-12T00:20:22.190Z,33.00
2019-05-12T00:22:58.116Z,30.47
2019-05-12T00:25:29.005Z,29.53
2019-05-12T00:27:59.952Z,30.10
2019-05-12T00:30:48.736Z,29.50
2019-05-12T00:33:19.306Z,29.03
2019-05-12T00:35:50.130Z,29.73
2019-05-12T00:38:21.032Z,29.60
2019-05-12T00:40:51.753Z,28.53
2019-05-12T00:43:22.424Z,28.53
2019-05-12T00:45:52.958Z,27.37
2019-05-12T00:48:24.178Z,28.40
2019-05-12T00:50:54.934Z,27.83
2019-05-12T00:53:39.414Z,27.37
2019-05-12T00:55:58.009Z,27.33
2019-05-12T00:58:28.757Z,27.43
2019-05-12T01:00:59.705Z,28.03
2019-05-12T01:03:30.754Z,28.60
2019-05-12T01:06:01.362Z,29.23
2019-05-12T01:08:32.317Z,29.07
2019-05-12T01:11:03.328Z,29.70
2019-05-12T01:13:34.134Z,30.60
2019-05-12T01:16:04.970Z,30.57
2019-05-12T01:18:38.423Z,31.27
2019-05-12T01:21:08.316Z,28.93
2019-05-12T01:23:53.307Z,29.70
2019-05-12T01:26:11.402Z,30.10
2019-05-12T01:28:42.465Z,28.70
2019-05-12T01:31:14.853Z,29.53
2019-05-12T01:33:45.539Z,31.00
2019-05-12T01:36:18.131Z,31.23
2019-05-12T01:38:48.583Z,29.33
2019-05-12T01:41:19.389Z,30.07
2019-05-12T01:43:50.150Z,30.43
2019-05-12T01:46:20.979Z,30.10
2019-05-12T01:48:51.631Z,30.70
2019-05-12T01:51:22.401Z,29.33
2019-05-12T01:53:53.041Z,29.87
2019-05-12T01:56:23.622Z,28.80
2019-05-12T01:58:54.293Z,29.17
2019-05-12T02:01:25.051Z,28.20
2019-05-12T02:03:55.556Z,29.03
2019-05-12T02:06:27.918Z,29.53
2019-05-12T02:09:00.581Z,27.47
2019-05-12T02:11:35.219Z,28.83
2019-05-12T02:14:06.360Z,29.07
2019-05-12T02:16:38.671Z,27.53
2019-05-12T02:19:10.757Z,28.07
2019-05-12T02:21:41.367Z,28.40
2019-05-12T02:24:23.532Z,29.13
2019-05-12T02:26:44.572Z,29.43
2019-05-12T02:29:15.612Z,27.93
2019-05-12T02:31:49.794Z,29.33
2019-05-12T02:34:18.547Z,28.70
2019-05-12T02:36:49.388Z,28.23
2019-05-12T02:39:20.054Z,27.07
2019-05-12T02:41:50.726Z,28.87
2019-05-12T02:44:24.567Z,27.93
2019-05-12T02:46:55.179Z,28.70
2019-05-12T02:49:26.181Z,27.20
2019-05-12T02:51:56.916Z,27.93
2019-05-12T02:54:47.066Z,25.90
2019-05-12T02:57:00.433Z,28.10
2019-05-12T02:59:34.713Z,27.40
2019-05-12T03:02:05.637Z,29.10
2019-05-12T03:04:38.352Z,28.10
2019-05-12T03:07:10.530Z,27.63
2019-05-12T03:09:44.705Z,27.70
2019-05-12T03:12:15.269Z,28.17
2019-05-12T03:14:45.939Z,27.87
2019-05-12T03:17:16.419Z,27.77
2019-05-12T03:19:47.045Z,26.73
2019-05-12T03:22:17.615Z,28.50
2019-05-12T03:25:06.468Z,27.57
2019-05-12T03:27:20.580Z,27.57
2019-05-12T03:29:51.368Z,27.67
2019-05-12T03:32:26.727Z,27.33
2019-05-12T03:34:57.909Z,26.53
2019-05-12T03:37:30.579Z,27.27
2019-05-12T03:39:58.455Z,25.77
2019-05-12T03:42:29.187Z,26.20
2019-05-12T03:44:59.942Z,27.80
2019-05-12T03:47:30.486Z,26.30
2019-05-12T03:50:04.341Z,25.07
2019-05-12T03:52:35.046Z,24.90
2019-05-12T03:55:26.010Z,25.33
2019-05-12T03:57:38.594Z,24.97
2019-05-12T04:00:10.491Z,25.60
2019-05-12T04:02:45.123Z,25.17
2019-05-12T04:05:15.617Z,25.00
2019-05-12T04:07:46.684Z,25.63
2019-05-12T04:10:17.283Z,25.07
2019-05-12T04:12:48.073Z,24.13
2019-05-12T04:15:19.789Z,25.13
2019-05-12T04:17:50.403Z,24.20
2019-05-12T04:20:20.906Z,24.80
2019-05-12T04:22:53.936Z,24.53
2019-05-12T04:25:24.918Z,24.97
2019-05-12T04:27:56.101Z,23.80
2019-05-12T04:30:27.536Z,23.43
2019-05-12T04:32:58.269Z,23.53
2019-05-12T04:35:29.025Z,23.33
2019-05-12T04:37:59.797Z,23.60
2019-05-12T04:40:30.498Z,23.43
2019-05-12T04:43:00.980Z,23.03
2019-05-12T04:45:34.265Z,23.67
2019-05-12T04:48:05.236Z,22.77
2019-05-12T04:50:36.837Z,22.20
2019-05-12T04:53:07.731Z,23.13
2019-05-12T04:55:38.237Z,22.20
2019-05-12T04:58:09.515Z,23.33
2019-05-12T05:00:44.827Z,23.37
2019-05-12T05:03:14.929Z,21.60
2019-05-12T05:05:45.867Z,22.53
2019-05-12T05:08:19.619Z,22.17
2019-05-12T05:10:49.349Z,21.97
2019-05-12T05:13:20.050Z,21.97
2019-05-12T05:15:50.945Z,21.00
2019-05-12T05:18:23.868Z,19.80
2019-05-12T05:20:54.317Z,20.87
2019-05-12T05:23:25.724Z,19.90
2019-05-12T05:25:56.544Z,20.43
2019-05-12T05:28:27.432Z,19.13
2019-05-12T05:30:58.215Z,19.53
2019-05-12T05:33:28.834Z,20.07
2019-05-12T05:36:00.046Z,18.83
2019-05-12T05:38:30.611Z,19.03
2019-05-12T05:41:06.051Z,18.37
2019-05-12T05:43:33.790Z,18.43
2019-05-12T05:46:07.893Z,18.33
2019-05-12T05:48:36.973Z,18.23
2019-05-12T05:51:09.206Z,17.17
2019-05-12T05:53:40.307Z,17.57
2019-05-12T05:56:11.037Z,17.27
2019-05-12T05:58:47.196Z,17.17
2019-05-12T06:01:14.582Z,16.27
2019-05-12T06:03:45.943Z,16.70
2019-05-12T06:06:17.920Z,16.27
2019-05-12T06:08:59.288Z,16.27
2019-05-12T06:11:31.251Z,15.33
2019-05-12T06:14:11.125Z,15.10
2019-05-12T06:16:35.635Z,14.80
2019-05-12T06:19:07.821Z,15.47
2019-05-12T06:21:38.623Z,15.03
2019-05-12T06:24:15.641Z,14.37
2019-05-12T06:26:54.529Z,15.00
2019-05-12T06:29:20.642Z,14.97
2019-05-12T06:31:51.195Z,14.47
2019-05-12T06:34:23.854Z,14.30
2019-05-12T06:36:57.193Z,14.07
2019-05-12T06:39:26.780Z,14.67
2019-05-12T06:42:08.639Z,14.43
2019-05-12T06:44:30.164Z,14.17
2019-05-12T06:47:03.614Z,14.53
2019-05-12T06:49:34.124Z,14.27
2019-05-12T06:52:07.180Z,13.53
2019-05-12T06:54:44.563Z,13.87
2019-05-12T06:57:24.051Z,13.67
2019-05-12T06:59:51.043Z,14.33
2019-05-12T07:02:17.260Z,13.47
2019-05-12T07:04:56.292Z,14.17
2019-05-12T07:07:20.537Z,13.40
2019-05-12T07:09:54.981Z,13.50
2019-05-12T07:12:32.302Z,13.73
2019-05-12T07:14:58.576Z,13.77
2019-05-12T07:17:55.677Z,13.20
2019-05-12T07:20:29.312Z,12.53
2019-05-12T07:22:57.342Z,13.53
2019-05-12T07:25:31.417Z,12.90
2019-05-12T07:28:01.523Z,13.20
2019-05-12T07:30:35.130Z,13.03
2019-05-12T07:33:05.296Z,12.57
2019-05-12T07:35:37.794Z,12.30
2019-05-12T07:38:12.204Z,12.23
2019-05-12T07:40:46.021Z,11.70
2019-05-12T07:43:20.828Z,12.30
2019-05-12T07:45:53.930Z,12.73
2019-05-12T07:48:24.835Z,12.67
2019-05-12T07:51:00.430Z,12.47
2019-05-12T07:53:28.119Z,11.87
2019-05-12T07:55:58.974Z,12.37
2019-05-12T07:58:29.965Z,12.03
2019-05-12T08:01:02.712Z,10.07
2019-05-12T08:03:35.128Z,10.93
2019-05-12T08:06:06.154Z,10.43
2019-05-12T08:08:41.847Z,10.33
2019-05-12T08:11:09.323Z,9.60
2019-05-12T08:13:40.990Z,9.17
2019-05-12T08:16:14.258Z,8.63
2019-05-12T08:18:44.733Z,8.87
2019-05-12T08:21:15.339Z,9.87
2019-05-12T08:23:46.387Z,9.33
2019-05-12T08:26:18.625Z,9.17
2019-05-12T08:28:49.291Z,9.10
2019-05-12T08:31:25.872Z,9.20
2019-05-12T08:33:53.823Z,9.10
2019-05-12T08:36:24.456Z,9.00
2019-05-12T08:38:55.077Z,8.60
2019-05-12T08:41:25.663Z,9.13
2019-05-12T08:43:58.452Z,8.60
2019-05-12T08:46:29.526Z,8.50
2019-05-12T08:49:02.469Z,8.07
2019-05-12T08:51:33.886Z,7.77
2019-05-12T08:54:08.162Z,7.07
2019-05-12T08:56:37.989Z,7.00
2019-05-12T08:59:09.587Z,6.97
2019-05-12T09:01:40.638Z,6.77
2019-05-12T09:04:17.357Z,6.20
2019-05-12T09:06:44.592Z,6.10
2019-05-12T09:09:15.454Z,5.73
2019-05-12T09:11:45.946Z,6.20
2019-05-12T09:14:16.383Z,5.90
2019-05-12T09:16:47.042Z,5.37
2019-05-12T09:19:23.849Z,5.23
2019-05-12T09:21:49.813Z,5.23
2019-05-12T09:24:25.396Z,5.10
2019-05-12T09:26:53.880Z,4.63
2019-05-12T09:29:25.277Z,3.80
2019-05-12T09:31:59.230Z,4.17
2019-05-12T09:34:29.346Z,3.77
2019-05-12T09:37:01.094Z,4.23
2019-05-12T09:39:36.427Z,4.27
2019-05-12T09:42:04.148Z,3.70
2019-05-12T09:44:35.097Z,4.27
2019-05-12T09:47:12.748Z,3.80
2019-05-12T09:49:39.538Z,4.03
2019-05-12T09:52:13.986Z,3.70
2019-05-12T09:54:44.407Z,3.47
2019-05-12T09:57:16.105Z,3.33
2019-05-12T09:59:55.548Z,3.60
2019-05-12T10:02:20.983Z,3.30
2019-05-12T10:04:56.492Z,3.37
2019-05-12T10:07:24.297Z,4.00
2019-05-12T10:09:58.944Z,3.53
2019-05-12T10:12:29.675Z,3.50
2019-05-12T10:14:59.552Z,3.90
2019-05-12T10:17:30.477Z,3.63
2019-05-12T10:20:01.249Z,3.80
2019-05-12T10:22:40.902Z,3.13
2019-05-12T10:25:14.211Z,3.47
2019-05-12T10:27:44.618Z,3.57
2019-05-12T10:30:17.736Z,2.87
2019-05-12T10:32:48.538Z,2.77
2019-05-12T10:35:21.591Z,2.70
2019-05-12T10:37:53.752Z,2.90
2019-05-12T10:40:24.326Z,3.53
2019-05-12T10:42:55.367Z,2.83
2019-05-12T10:45:28.522Z,3.30
2019-05-12T10:47:59.254Z,3.30
2019-05-12T10:50:30.183Z,2.90
2019-05-12T10:53:01.226Z,2.40
2019-05-12T10:55:33.555Z,2.83
2019-05-12T10:58:06.860Z,3.20
2019-05-12T11:00:36.353Z,2.80
2019-05-12T11:03:10.811Z,2.33
2019-05-12T11:05:39.253Z,2.77
2019-05-12T11:08:11.371Z,2.83
2019-05-12T11:10:42.165Z,3.10
2019-05-12T11:13:14.522Z,2.33
2019-05-12T11:15:49.453Z,2.70
2019-05-12T11:18:24.919Z,2.40
2019-05-12T11:20:54.372Z,2.27
2019-05-12T11:23:25.272Z,2.53
2019-05-12T11:25:56.285Z,2.93
2019-05-12T11:28:26.876Z,2.23
2019-05-12T11:30:57.688Z,2.80
2019-05-12T11:33:28.230Z,2.30
2019-05-12T11:35:59.038Z,2.42
2019-05-12T11:38:30.265Z,2.73
2019-05-12T11:41:01.169Z,2.40
2019-05-12T11:43:33.794Z,2.20
2019-05-12T11:46:04.564Z,2.30
2019-05-12T11:48:35.291Z,2.50
2019-05-12T11:51:06.324Z,2.40
2019-05-12T11:53:37.212Z,2.13
2019-05-12T11:56:09.354Z,2.23
2019-05-12T11:58:41.393Z,2.20
2019-05-12T12:01:14.138Z,2.10
2019-05-12T12:03:44.834Z,2.50
2019-05-12T12:06:15.684Z,2.30
2019-05-12T12:08:46.135Z,2.00
2019-05-12T12:11:24.252Z,2.40
2019-05-12T12:13:53.409Z,1.97
2019-05-12T12:16:24.732Z,2.20
2019-05-12T12:19:02.286Z,2.17
2019-05-12T12:21:27.687Z,2.50
2019-05-12T12:23:59.591Z,2.47
2019-05-12T12:26:32.631Z,2.30
2019-05-12T12:29:03.352Z,2.30
2019-05-12T12:31:53.253Z,2.33
2019-05-12T12:34:29.913Z,3.20
2019-05-12T12:36:56.824Z,2.90
2019-05-12T12:39:27.303Z,2.17
2019-05-12T12:42:00.523Z,2.50
2019-05-12T12:44:30.246Z,2.40
2019-05-12T12:47:01.892Z,2.50
2019-05-12T12:49:33.974Z,2.50
2019-05-12T12:52:05.211Z,2.33
2019-05-12T12:54:36.175Z,2.53
2019-05-12T12:57:09.989Z,2.67
2019-05-12T12:59:42.864Z,2.60
2019-05-12T13:02:14.280Z,2.47
2019-05-12T13:04:50.211Z,2.40
2019-05-12T13:07:17.950Z,2.20
2019-05-12T13:09:48.501Z,2.47
2019-05-12T13:12:19.809Z,2.30
2019-05-12T13:14:53.205Z,2.67
2019-05-12T13:17:28.977Z,3.00
2019-05-12T13:19:58.650Z,6.97
2019-05-12T13:22:29.719Z,5.15
2019-05-12T13:25:04.574Z,4.20
2019-05-12T13:27:36.753Z,3.85
2019-05-12T13:30:06.409Z,4.60
2019-05-12T13:32:38.022Z,4.10
2019-05-12T13:35:09.695Z,3.47
2019-05-12T13:37:43.126Z,5.83
2019-05-12T13:40:13.800Z,4.30
2019-05-12T13:42:44.659Z,3.37
2019-05-12T13:45:16.481Z,3.10
2019-05-12T13:47:47.465Z,2.63
2019-05-12T13:50:26.053Z,3.60
2019-05-12T13:52:51.117Z,2.60
2019-05-12T13:55:23.902Z,3.30
2019-05-12T13:57:57.595Z,3.13
2019-05-12T14:00:26.639Z,2.40
2019-05-12T14:03:04.544Z,3.13
2019-05-12T14:05:29.689Z,2.63
2019-05-12T14:08:00.611Z,2.47
2019-05-12T14:10:34.977Z,2.87
2019-05-12T14:13:03.957Z,2.60
2019-05-12T14:15:34.639Z,2.43
2019-05-12T14:18:10.257Z,2.40
2019-05-12T14:20:37.816Z,2.47
2019-05-12T14:23:08.748Z,2.60
2019-05-12T14:25:39.882Z,2.30
2019-05-12T14:28:13.669Z,2.83
2019-05-12T14:30:49.696Z,2.50
2019-05-12T14:33:18.273Z,2.40
2019-05-12T14:35:47.952Z,2.70
2019-05-12T14:38:19.308Z,2.40
2019-05-12T14:40:53.482Z,2.67
2019-05-12T14:43:24.244Z,4.47
2019-05-12T14:45:55.055Z,3.20
2019-05-12T14:48:25.668Z,3.90
2019-05-12T14:50:56.368Z,4.30
2019-05-12T14:53:26.952Z,3.93
2019-05-12T14:55:57.596Z,4.67
2019-05-12T14:58:28.470Z,5.03
2019-05-12T15:00:59.180Z,5.03
2019-05-12T15:03:29.851Z,5.80
2019-05-12T15:06:00.549Z,6.10
2019-05-12T15:08:36.384Z,6.17
2019-05-12T15:11:04.023Z,5.40
2019-05-12T15:13:36.047Z,5.47
2019-05-12T15:16:06.737Z,5.53
2019-05-12T15:18:39.618Z,6.23
2019-05-12T15:21:13.733Z,5.93
2019-05-12T15:23:44.172Z,6.87
2019-05-12T15:26:19.546Z,6.50
2019-05-12T15:28:47.049Z,7.53
2019-05-12T15:31:17.589Z,7.43
2019-05-12T15:33:49.623Z,6.93
2019-05-12T15:36:20.280Z,7.43
2019-05-12T15:38:55.547Z,7.67
2019-05-12T15:41:23.871Z,8.00
2019-05-12T15:43:55.804Z,8.10
2019-05-12T15:46:34.660Z,7.97
2019-05-12T15:49:00.523Z,8.57
2019-05-12T15:51:35.460Z,8.77
2019-05-12T15:54:06.554Z,9.70
2019-05-12T15:56:35.760Z,9.97
2019-05-12T15:59:06.525Z,10.23
2019-05-12T16:01:37.481Z,8.77
2019-05-12T16:04:11.594Z,9.23
2019-05-12T16:06:44.748Z,8.00
2019-05-12T16:09:13.566Z,8.23
2019-05-12T16:11:44.120Z,7.77
2019-05-12T16:14:15.035Z,7.67
2019-05-12T16:16:47.152Z,7.57
2019-05-12T16:19:17.937Z,6.80
2019-05-12T16:21:48.540Z,7.20
2019-05-12T16:24:19.203Z,7.13
2019-05-12T16:26:52.122Z,7.07
2019-05-12T16:29:23.224Z,7.00
2019-05-12T16:31:54.262Z,6.83
2019-05-12T16:34:25.134Z,7.30
2019-05-12T16:36:56.892Z,6.53
2019-05-12T16:39:30.499Z,6.67
2019-05-12T16:42:05.004Z,6.17
2019-05-12T16:44:34.688Z,6.47
2019-05-12T16:47:04.661Z,6.23
2019-05-12T16:49:37.339Z,6.03
2019-05-12T16:52:07.601Z,6.53
2019-05-12T16:54:39.823Z,6.20
2019-05-12T16:57:15.621Z,6.80
2019-05-12T16:59:43.103Z,6.57
2019-05-12T17:02:13.809Z,6.83
2019-05-12T17:04:45.079Z,6.57
2019-05-12T17:07:20.686Z,6.43
2019-05-12T17:09:48.776Z,6.53
2019-05-12T17:12:23.639Z,6.33
2019-05-12T17:14:53.293Z,6.63
2019-05-12T17:17:25.260Z,7.07
2019-05-12T17:19:56.127Z,7.43
2019-05-12T17:22:27.066Z,7.30
2019-05-12T17:24:57.546Z,7.40
2019-05-12T17:27:28.511Z,6.78
2019-05-12T17:29:59.321Z,6.97
2019-05-12T17:32:30.048Z,7.23
2019-05-12T17:35:01.053Z,6.70
2019-05-12T17:37:37.456Z,7.30
2019-05-12T17:40:09.386Z,7.63
2019-05-12T17:42:38.457Z,7.67
2019-05-12T17:45:14.744Z,7.47
2019-05-12T17:47:44.406Z,7.47
2019-05-12T17:50:18.260Z,7.57
2019-05-12T17:52:50.542Z,7.53
2019-05-12T17:55:21.381Z,7.10
2019-05-12T17:57:56.321Z,6.37
2019-05-12T18:00:24.700Z,7.53
2019-05-12T18:03:14.183Z,7.00
2019-05-12T18:05:27.859Z,7.13
2019-05-12T18:07:58.566Z,7.63
2019-05-12T18:10:32.651Z,8.77
2019-05-12T18:13:03.875Z,7.97
2019-05-12T18:15:37.932Z,7.60
2019-05-12T18:18:06.780Z,6.73
2019-05-12T18:20:41.754Z,7.67
2019-05-12T18:23:35.522Z,7.33
2019-05-12T18:26:11.467Z,7.53
2019-05-12T18:28:38.737Z,7.60
2019-05-12T18:31:10.170Z,7.53
2019-05-12T18:33:49.007Z,7.30
2019-05-12T18:36:14.379Z,7.63
2019-05-12T18:38:45.586Z,8.63
2019-05-12T18:41:16.328Z,8.13
2019-05-12T18:43:46.899Z,8.30
2019-05-12T18:46:17.757Z,8.13
2019-05-12T18:48:56.632Z,8.57
2019-05-12T18:51:23.833Z,9.03
2019-05-12T18:53:57.728Z,7.77
2019-05-12T18:56:27.688Z,8.50
2019-05-12T18:59:05.094Z,8.33
2019-05-12T19:01:33.472Z,8.13
2019-05-12T19:04:04.570Z,7.43
2019-05-12T19:06:36.596Z,7.90
2019-05-12T19:09:09.793Z,7.47
2019-05-12T19:11:42.093Z,7.90
2019-05-12T19:14:13.467Z,6.97
2019-05-12T19:16:44.413Z,5.40
2019-05-12T19:19:19.654Z,5.07
2019-05-12T19:21:47.092Z,4.90
2019-05-12T19:24:20.091Z,4.90
2019-05-12T19:26:51.013Z,4.90
2019-05-12T19:29:24.300Z,4.70
2019-05-12T19:31:57.840Z,4.50
2019-05-12T19:34:31.851Z,4.30
2019-05-12T19:36:59.277Z,4.40
2019-05-12T19:39:30.643Z,4.53
2019-05-12T19:42:03.599Z,4.47
2019-05-12T19:44:55.883Z,5.10
2019-05-12T19:47:33.571Z,4.80
2019-05-12T19:49:59.553Z,4.10
2019-05-12T19:52:30.550Z,4.27
2019-05-12T19:55:03.514Z,3.90
2019-05-12T19:57:33.856Z,3.77
2019-05-12T20:00:07.299Z,3.47
2019-05-12T20:02:39.546Z,3.70
2019-05-12T20:05:14.303Z,3.43
2019-05-12T20:07:44.721Z,3.60
2019-05-12T20:10:16.723Z,3.60
2019-05-12T20:12:48.853Z,3.60
2019-05-12T20:15:20.368Z,3.37
2019-05-12T20:17:53.385Z,5.47
2019-05-12T20:20:26.724Z,3.50
2019-05-12T20:22:56.394Z,3.40
2019-05-12T20:25:27.254Z,3.80
2019-05-12T20:28:05.628Z,3.13
2019-05-12T20:30:30.485Z,3.20
2019-05-12T20:33:04.131Z,3.33
2019-05-12T20:35:39.307Z,3.20
2019-05-12T20:38:07.704Z,3.27
2019-05-12T20:40:39.895Z,3.33
2019-05-12T20:43:12.285Z,3.03
2019-05-12T20:45:45.551Z,3.23
2019-05-12T20:48:19.636Z,3.47
2019-05-12T20:50:48.282Z,3.13
2019-05-12T20:53:24.800Z,3.60
2019-05-12T20:55:54.584Z,3.63
2019-05-12T20:58:26.599Z,3.00
2019-05-12T21:00:57.105Z,3.30
2019-05-12T21:03:33.438Z,2.90
2019-05-12T21:06:04.348Z,3.27
2019-05-12T21:08:36.386Z,3.43
2019-05-12T21:11:07.539Z,3.00
2019-05-12T21:13:38.779Z,3.10
2019-05-12T21:16:19.346Z,2.77
2019-05-12T21:18:47.829Z,2.90
2019-05-12T21:21:15.021Z,3.03
2019-05-12T21:23:54.056Z,2.77
2019-05-12T21:26:18.231Z,3.00
2019-05-12T21:28:49.545Z,2.60
2019-05-12T21:31:20.591Z,2.90
2019-05-12T21:33:53.502Z,2.67
2019-05-12T21:36:26.963Z,2.70
2019-05-12T21:38:59.405Z,2.70
2019-05-12T21:41:29.538Z,2.70
2019-05-12T21:44:05.559Z,3.07
2019-05-12T21:46:34.625Z,2.60
2019-05-12T21:49:10.362Z,2.53
2019-05-12T21:51:37.345Z,2.90
2019-05-12T21:54:08.185Z,2.53
2019-05-12T21:56:45.003Z,2.67
2019-05-12T21:59:14.923Z,2.83
2019-05-12T22:01:45.972Z,2.70
2019-05-12T22:04:16.973Z,3.40
2019-05-12T22:06:51.354Z,3.17
2019-05-12T22:09:19.549Z,2.67
2019-05-12T22:11:53.463Z,2.83
2019-05-12T22:14:24.071Z,2.90
2019-05-12T22:16:56.742Z,2.53
2019-05-12T22:19:30.981Z,2.80
2019-05-12T22:22:01.043Z,2.80
2019-05-12T22:24:34.598Z,2.77
2019-05-12T22:27:05.237Z,3.50
2019-05-12T22:29:36.220Z,2.27
2019-05-12T22:32:06.932Z,2.60
2019-05-12T22:34:42.024Z,2.50
2019-05-12T22:37:09.892Z,2.60
2019-05-12T22:39:40.364Z,2.57
2019-05-12T22:42:11.678Z,2.50
2019-05-12T22:44:43.761Z,2.47
2019-05-12T22:47:17.539Z,2.53
2019-05-12T22:49:52.254Z,2.43
2019-05-12T22:52:19.303Z,2.40
2019-05-12T22:54:51.119Z,2.30
2019-05-12T22:57:23.970Z,2.30
2019-05-12T22:59:55.052Z,2.43
2019-05-12T23:02:29.943Z,2.67
2019-05-12T23:04:57.754Z,2.80
2019-05-12T23:07:29.828Z,2.80
2019-05-12T23:10:07.073Z,2.40
2019-05-12T23:12:34.348Z,2.63
2019-05-12T23:15:16.908Z,2.40
2019-05-12T23:17:49.399Z,2.23
2019-05-12T23:20:25.289Z,2.60
2019-05-12T23:22:54.405Z,2.40
2019-05-12T23:25:25.501Z,2.70
2019-05-12T23:28:00.246Z,2.20
2019-05-12T23:30:28.658Z,2.40
2019-05-12T23:32:59.419Z,2.40
2019-05-12T23:35:34.939Z,2.47
2019-05-12T23:38:04.404Z,2.87
2019-05-12T23:40:35.357Z,2.30
2019-05-12T23:43:05.799Z,2.10
2019-05-12T23:45:36.380Z,2.07
2019-05-12T23:48:07.051Z,2.10
2019-05-12T23:50:37.867Z,2.17
2019-05-12T23:53:08.335Z,2.20
2019-05-12T23:55:38.758Z,2.17
2019-05-12T23:58:09.655Z,2.20
